Time;durP1;ratioP1;P1;durP2;ratioP2;P2;SDS_P1;SDS_P2;PMS_P1;PMS_P2;Temp;Humidity;BMP_temperature;BMP_pressure;BME280_temperature;BME280_humidity;BME280_pressure;Samples;Min_cycle;Max_cycle;Signal;HPM_P1;HPM_P2
2022/07/07 00:08:20;;;;;;;0.80;0.35;;;21.50;53.60;;;;;;20899200;28;20037;-73
2022/07/07 00:18:21;;;;;;;0.30;0.20;;;21.50;53.90;;;;;;20881021;28;20029;-74
2022/07/07 00:28:21;;;;;;;0.77;0.28;;;21.50;54.20;;;;;;20867655;28;20036;-73
2022/07/07 00:38:22;;;;;;;0.47;0.40;;;21.50;54.50;;;;;;20854801;28;20036;-73
2022/07/07 00:48:22;;;;;;;1.13;0.50;;;21.40;54.80;;;;;;21252423;22;20052;-72
2022/07/07 00:58:23;;;;;;;3.60;0.43;;;21.40;55.10;;;;;;20870589;28;20382;-73
2022/07/07 01:08:23;;;;;;;2.55;0.40;;;21.40;55.40;;;;;;20874509;28;20029;-72
2022/07/07 01:18:24;;;;;;;1.20;0.25;;;21.40;55.70;;;;;;20918238;28;20033;-72
2022/07/07 01:28:24;;;;;;;1.33;0.40;;;21.30;56.10;;;;;;20901937;28;20071;-72
2022/07/07 01:38:25;;;;;;;2.20;0.40;;;21.30;56.30;;;;;;20911461;28;20062;-72
2022/07/07 01:48:26;;;;;;;2.55;0.68;;;21.30;56.50;;;;;;20881836;28;20032;-73
2022/07/07 01:58:26;;;;;;;1.33;0.40;;;21.20;56.80;;;;;;20888029;28;20123;-74
2022/07/07 02:08:27;;;;;;;0.90;0.40;;;21.20;57.10;;;;;;20894937;28;20116;-73
2022/07/07 02:18:28;;;;;;;1.08;0.68;;;21.20;57.40;;;;;;20914847;28;20040;-73
2022/07/07 02:28:29;;;;;;;0.70;0.47;;;21.20;57.70;;;;;;20902280;28;20032;-72
2022/07/07 02:38:30;;;;;;;1.20;0.55;;;21.20;57.90;;;;;;20900753;28;20422;-74
2022/07/07 02:48:30;;;;;;;1.10;0.30;;;21.20;58.10;;;;;;20904020;28;20041;-74
2022/07/07 02:58:31;;;;;;;1.03;0.40;;;21.10;58.20;;;;;;20901761;28;20445;-74
2022/07/07 03:08:32;;;;;;;0.30;0.30;;;21.10;58.40;;;;;;20929292;28;20059;-72
2022/07/07 03:18:32;;;;;;;1.13;0.40;;;21.10;58.50;;;;;;20912633;28;20360;-73
2022/07/07 03:28:33;;;;;;;1.20;0.70;;;21.10;58.70;;;;;;20901532;28;20115;-74
2022/07/07 03:38:33;;;;;;;3.60;0.73;;;21.10;58.90;;;;;;20913982;28;20440;-75
2022/07/07 03:48:34;;;;;;;1.17;0.40;;;21.10;59.20;;;;;;20900030;28;20494;-75
2022/07/07 03:58:35;;;;;;;0.47;0.25;;;21.10;59.40;;;;;;20930808;28;20125;-75
2022/07/07 04:08:35;;;;;;;0.50;0.40;;;21.10;59.60;;;;;;20934835;28;20036;-74
2022/07/07 04:18:36;;;;;;;1.73;0.40;;;21.00;59.70;;;;;;20929739;28;20036;-77
2022/07/07 04:28:37;;;;;;;0.88;0.52;;;21.00;59.80;;;;;;20919912;28;20036;-75
2022/07/07 04:38:37;;;;;;;0.93;0.50;;;21.00;60.00;;;;;;20927442;28;20107;-75
2022/07/07 04:48:39;;;;;;;1.58;0.50;;;21.00;60.10;;;;;;20871423;28;20037;-78
2022/07/07 04:58:40;;;;;;;2.20;0.47;;;21.00;60.30;;;;;;20896685;28;20040;-79
2022/07/07 05:08:40;;;;;;;1.30;0.55;;;21.00;60.50;;;;;;20897756;28;20036;-75
2022/07/07 05:18:41;;;;;;;1.50;0.70;;;21.00;60.60;;;;;;20898448;28;20040;-84
2022/07/07 05:28:41;;;;;;;1.05;0.52;;;20.90;60.60;;;;;;20912748;28;20425;-76
2022/07/07 05:38:45;;;;;;;2.92;0.90;;;21.00;60.90;;;;;;20852685;28;20124;-75
2022/07/07 05:48:45;;;;;;;1.65;0.80;;;20.90;61.70;;;;;;20900959;28;20119;-75
2022/07/07 05:58:46;;;;;;;1.55;0.77;;;20.80;62.40;;;;;;20898494;28;20386;-76
2022/07/07 06:08:46;;;;;;;0.88;0.63;;;20.80;63.00;;;;;;20892747;28;20446;-75
2022/07/07 06:18:47;;;;;;;2.83;1.02;;;20.70;63.30;;;;;;20949384;28;20390;-75
2022/07/07 06:28:48;;;;;;;3.08;1.23;;;20.70;63.80;;;;;;20882844;28;20116;-75
2022/07/07 06:38:48;;;;;;;1.08;0.75;;;20.70;64.10;;;;;;20887467;28;20044;-81
2022/07/07 06:48:49;;;;;;;1.50;0.70;;;20.70;64.60;;;;;;20868423;28;20048;-82
2022/07/07 06:58:49;;;;;;;1.48;0.68;;;20.60;65.10;;;;;;20844839;28;20072;-82
2022/07/07 07:08:50;;;;;;;0.55;0.55;;;20.60;65.40;;;;;;20861016;28;20037;-81
2022/07/07 07:18:50;;;;;;;2.60;0.75;;;20.60;65.70;;;;;;20908096;28;20082;-81
2022/07/07 07:28:51;;;;;;;1.50;0.80;;;20.50;66.10;;;;;;20959775;28;20025;-81
2022/07/07 07:38:52;;;;;;;2.10;0.70;;;20.50;66.50;;;;;;20886249;28;20043;-82
2022/07/07 07:48:52;;;;;;;1.00;0.90;;;20.50;66.80;;;;;;20892087;28;20792;-82
2022/07/07 07:58:53;;;;;;;0.90;0.70;;;20.60;67.20;;;;;;20889028;28;20041;-82
2022/07/07 08:08:53;;;;;;;2.95;1.00;;;20.50;67.40;;;;;;20873735;28;20487;-81
2022/07/07 08:18:54;;;;;;;2.03;0.68;;;20.60;67.80;;;;;;20869968;28;20526;-81
2022/07/07 08:28:54;;;;;;;2.40;0.98;;;20.50;68.00;;;;;;20906479;28;20044;-82
2022/07/07 08:38:55;;;;;;;2.33;0.93;;;20.50;68.30;;;;;;20854996;28;20667;-81
2022/07/07 08:48:55;;;;;;;1.45;0.70;;;20.60;68.60;;;;;;20878832;28;20068;-84
2022/07/07 08:58:57;;;;;;;0.63;0.57;;;20.60;68.70;;;;;;20950085;28;20048;-83
2022/07/07 09:08:58;;;;;;;2.03;1.00;;;20.50;68.70;;;;;;20968040;28;20032;-82
2022/07/07 09:18:58;;;;;;;1.17;1.00;;;20.60;68.90;;;;;;20897011;28;20831;-87
2022/07/07 09:28:59;;;;;;;1.73;0.80;;;20.60;69.10;;;;;;20871313;28;20800;-86
2022/07/07 09:39:03;;;;;;;0.57;0.57;;;20.60;69.40;;;;;;20868000;28;20033;-86
2022/07/07 09:49:04;;;;;;;1.25;0.40;;;20.60;69.50;;;;;;20868547;28;20086;-86
2022/07/07 09:59:09;;;;;;;0.93;0.40;;;20.70;69.10;;;;;;20898819;28;20234;-82
2022/07/07 10:09:19;;;;;;;1.10;0.63;;;20.80;68.90;;;;;;20850326;28;20116;-83
2022/07/07 10:19:22;;;;;;;0.90;0.40;;;20.80;68.90;;;;;;20909901;28;20467;-84
2022/07/07 10:29:41;;;;;;;0.60;0.32;;;20.80;68.60;;;;;;20861938;28;20032;-79
2022/07/07 10:39:56;;;;;;;0.55;0.40;;;20.80;68.40;;;;;;20875471;28;20041;-75
2022/07/07 10:49:56;;;;;;;1.50;1.10;;;20.80;68.40;;;;;;20884521;28;20107;-81
2022/07/07 11:00:09;;;;;;;0.93;0.63;;;20.90;68.20;;;;;;20888546;28;20029;-79
2022/07/07 11:10:10;;;;;;;0.57;0.35;;;20.90;67.50;;;;;;20931200;28;20032;-78
2022/07/07 11:20:21;;;;;;;1.67;0.50;;;21.00;67.00;;;;;;20923312;28;20124;-79
2022/07/07 11:30:22;;;;;;;1.77;0.88;;;21.00;66.70;;;;;;20900817;28;20056;-74
2022/07/07 11:40:24;;;;;;;3.92;0.45;;;21.00;66.50;;;;;;20911697;28;20037;-74
2022/07/07 11:50:24;;;;;;;0.93;0.52;;;21.10;66.50;;;;;;20901084;28;20044;-71
2022/07/07 12:00:32;;;;;;;4.95;1.20;;;21.10;66.90;;;;;;20923183;28;20144;-73
2022/07/07 12:10:40;;;;;;;3.80;0.50;;;21.00;67.50;;;;;;20916041;28;20490;-74
2022/07/07 12:20:41;;;;;;;2.75;0.45;;;21.00;67.60;;;;;;20882257;28;20060;-71
2022/07/07 12:30:55;;;;;;;2.25;0.70;;;21.00;67.90;;;;;;20908925;28;20353;-75
2022/07/07 12:40:56;;;;;;;1.92;0.80;;;21.10;67.70;;;;;;20930634;28;20040;-72
2022/07/07 12:51:06;;;;;;;4.97;0.88;;;21.20;67.10;;;;;;20897796;28;20063;-71
2022/07/07 13:01:06;;;;;;;3.55;0.70;;;21.20;66.70;;;;;;20891495;28;20040;-71
2022/07/07 13:11:07;;;;;;;2.13;0.80;;;21.20;66.40;;;;;;20889525;28;20032;-71
2022/07/07 13:21:08;;;;;;;1.38;0.80;;;21.20;66.20;;;;;;20918115;28;20086;-70
2022/07/07 13:31:08;;;;;;;4.00;0.75;;;21.30;66.00;;;;;;20916634;28;20028;-70
2022/07/07 13:41:09;;;;;;;0.93;0.50;;;21.30;65.80;;;;;;20916192;28;20406;-71
2022/07/07 13:51:10;;;;;;;1.08;0.40;;;21.30;65.60;;;;;;20904326;28;20603;-72
2022/07/07 14:01:11;;;;;;;0.85;0.40;;;21.30;65.30;;;;;;20880923;28;20043;-72
2022/07/07 14:11:12;;;;;;;1.60;0.70;;;21.30;65.00;;;;;;20871220;28;20038;-76
2022/07/07 14:21:12;;;;;;;1.77;0.50;;;21.40;64.80;;;;;;20908542;28;20044;-76
2022/07/07 14:31:13;;;;;;;4.18;0.70;;;21.40;64.70;;;;;;20895894;28;20086;-76
2022/07/07 14:41:13;;;;;;;3.23;0.60;;;21.40;64.60;;;;;;20877389;28;20044;-77
2022/07/07 14:51:14;;;;;;;4.28;0.77;;;21.40;64.50;;;;;;20856780;28;20029;-77
2022/07/07 15:01:15;;;;;;;2.63;0.60;;;21.40;64.60;;;;;;20892486;28;20064;-78
2022/07/07 15:11:16;;;;;;;6.85;0.60;;;21.40;64.60;;;;;;20881656;28;20302;-79
2022/07/07 15:21:16;;;;;;;2.13;1.08;;;21.40;64.60;;;;;;20894753;28;20028;-80
2022/07/07 15:31:17;;;;;;;3.60;0.93;;;21.50;64.60;;;;;;20892960;28;20481;-78
2022/07/07 15:41:18;;;;;;;6.60;1.20;;;21.40;64.40;;;;;;20921281;28;20389;-74
2022/07/07 15:51:19;;;;;;;6.30;1.08;;;21.40;64.20;;;;;;20932734;28;20028;-70
2022/07/07 16:01:20;;;;;;;2.45;1.20;;;21.30;63.80;;;;;;20906456;28;20491;-72
2022/07/07 16:11:20;;;;;;;4.72;1.02;;;21.30;63.40;;;;;;20889691;28;20044;-73
2022/07/07 16:21:21;;;;;;;5.57;1.17;;;21.30;63.10;;;;;;20888318;28;20040;-74
2022/07/07 16:31:22;;;;;;;2.70;1.17;;;21.20;62.60;;;;;;20871996;28;20041;-72
2022/07/07 16:41:22;;;;;;;5.82;1.30;;;21.30;62.30;;;;;;20862070;28;20071;-72
2022/07/07 16:51:23;;;;;;;4.50;1.17;;;21.30;61.60;;;;;;20867879;28;20079;-72
2022/07/07 17:01:24;;;;;;;5.22;1.25;;;21.30;60.90;;;;;;20896846;28;20029;-73
2022/07/07 17:11:25;;;;;;;5.22;1.27;;;21.20;60.40;;;;;;20860240;28;20449;-73
2022/07/07 17:21:26;;;;;;;2.50;1.02;;;21.20;60.10;;;;;;20865328;28;20036;-73
2022/07/07 17:31:26;;;;;;;6.13;0.95;;;21.20;59.80;;;;;;20865828;28;20032;-73
2022/07/07 17:41:27;;;;;;;6.10;1.30;;;21.10;59.50;;;;;;20876588;28;20037;-73
2022/07/07 17:51:27;;;;;;;5.57;1.00;;;21.10;59.30;;;;;;20864243;28;20040;-71
2022/07/07 18:01:28;;;;;;;7.15;1.70;;;21.10;59.10;;;;;;20859423;28;20039;-71
2022/07/07 18:11:29;;;;;;;8.90;1.23;;;21.10;59.20;;;;;;20882320;28;20033;-71
2022/07/07 18:21:29;;;;;;;4.80;0.88;;;21.10;59.10;;;;;;20859846;28;20116;-71
2022/07/07 18:31:30;;;;;;;2.90;0.80;;;21.00;58.80;;;;;;20862050;28;20056;-71
2022/07/07 18:41:31;;;;;;;5.22;1.33;;;21.00;58.60;;;;;;20863726;28;20036;-73
2022/07/07 18:51:34;;;;;;;5.10;1.38;;;21.00;58.50;;;;;;20876148;28;20119;-73
2022/07/07 19:01:35;;;;;;;4.10;1.13;;;21.00;58.50;;;;;;20855405;28;20091;-74
2022/07/07 19:11:35;;;;;;;3.45;1.20;;;21.00;58.40;;;;;;20916448;28;20071;-74
2022/07/07 19:21:39;;;;;;;2.78;0.90;;;20.90;58.20;;;;;;20918029;28;20035;-74
2022/07/07 19:31:40;;;;;;;4.45;1.10;;;20.90;58.10;;;;;;20867820;28;20063;-74
2022/07/07 19:41:41;;;;;;;4.32;0.90;;;20.90;58.00;;;;;;20859910;28;20111;-74
2022/07/07 19:51:44;;;;;;;8.00;1.60;;;20.80;58.00;;;;;;20889297;28;20029;-73
2022/07/07 20:01:44;;;;;;;10.13;1.60;;;20.80;57.80;;;;;;20926054;28;20025;-74
2022/07/07 20:11:45;;;;;;;3.90;1.17;;;20.80;57.90;;;;;;20920508;28;20538;-74
2022/07/07 20:21:46;;;;;;;9.45;1.98;;;20.80;57.80;;;;;;20906949;28;20299;-74
2022/07/07 20:31:46;;;;;;;11.00;2.10;;;20.80;58.50;;;;;;20905672;28;20040;-74
2022/07/07 20:41:47;;;;;;;6.60;1.83;;;20.80;57.90;;;;;;20888128;28;20416;-74
2022/07/07 20:51:47;;;;;;;5.43;1.42;;;20.70;57.90;;;;;;20885727;28;20166;-79
2022/07/07 21:02:00;;;;;;;6.03;2.00;;;20.70;57.90;;;;;;20924006;28;20033;-74
2022/07/07 21:12:01;;;;;;;8.18;1.80;;;20.70;58.00;;;;;;20905073;28;20479;-74
2022/07/07 21:22:02;;;;;;;3.40;1.30;;;20.60;58.10;;;;;;20918899;28;20119;-74
2022/07/07 21:32:03;;;;;;;9.38;1.52;;;20.70;58.10;;;;;;20900246;28;20128;-74
2022/07/07 21:42:04;;;;;;;9.57;1.98;;;20.60;58.10;;;;;;20900095;28;20059;-74
2022/07/07 21:52:06;;;;;;;6.80;1.60;;;20.60;58.20;;;;;;20872101;28;20491;-74
2022/07/07 22:02:06;;;;;;;5.50;1.73;;;20.60;58.20;;;;;;20881779;28;20475;-74
2022/07/07 22:12:09;;;;;;;8.18;1.98;;;20.60;58.30;;;;;;20905014;28;20128;-74
2022/07/07 22:22:10;;;;;;;12.43;1.98;;;20.60;58.30;;;;;;20881640;28;20025;-74
2022/07/07 22:32:10;;;;;;;7.50;1.52;;;20.50;58.40;;;;;;20912667;28;20391;-74
2022/07/07 22:42:11;;;;;;;7.53;1.77;;;20.50;58.50;;;;;;20897452;28;20598;-74
2022/07/07 22:52:11;;;;;;;5.18;1.85;;;20.50;58.60;;;;;;20884648;28;20037;-74
2022/07/07 23:02:12;;;;;;;9.50;2.08;;;20.50;58.80;;;;;;20891339;28;20169;-74
2022/07/07 23:12:13;;;;;;;9.23;1.77;;;20.50;58.80;;;;;;20911673;28;20040;-74
2022/07/07 23:22:13;;;;;;;7.97;1.60;;;20.50;58.80;;;;;;20908702;28;20174;-75
2022/07/07 23:32:14;;;;;;;6.93;1.70;;;20.50;58.90;;;;;;20893443;28;20045;-74
2022/07/07 23:42:14;;;;;;;5.93;1.50;;;20.50;58.90;;;;;;20893593;28;20079;-75
2022/07/07 23:52:15;;;;;;;7.70;1.65;;;20.50;58.90;;;;;;20897433;28;20044;-74
